KSIY/SIY METAR and TAF weather

Enter ICAO airport designator
Station Type Date Time Source
KSIY METAR 2021/10/22 19:53 UTC NOAA

KSIY 221953Z AUTO 17005KT 10SM FEW036 FEW060 SCT070 12/04 A2992 RMK AO2 SLP136 T01220044


Station Type Date Time Source
KSIY Decoded METAR 2021/10/22 19:53 UTC NOAA

MONTAGUE SISKIYOU COUNTY, CA, United States (KSIY) 41-46N 122-28W
Oct 22, 2021 - 03:53 PM EDT / 2021.10.22 1953 UTC
Wind: from the S (170 degrees) at 6 MPH (5 KT):0
Visibility: 10 mile(s):0
Sky conditions: partly cloudy
Temperature: 54.0 F (12.2 C)
Dew Point: 39.9 F (4.4 C)
Relative Humidity: 58%
Pressure (altimeter): 29.92 in. Hg (1013 hPa)
ob: KSIY 221953Z AUTO 17005KT 10SM FEW036 FEW060 SCT070 12/04 A2992 RMK AO2 SLP136 T01220044
cycle: 20

Station Type Date Time Source
KSIY TAF UTC NOAA

Error!

Example: see airport list